sensor_id;sensor_type;location;lat;lon;timestamp;pressure;altitude;pressure_sealevel;temperature;humidity
71917;BME280;59793;46.506;6.674;2022-08-25T00:01:13;97090.59;;;22.10;49.40
71917;BME280;59793;46.506;6.674;2022-08-25T00:03:40;97094.19;;;22.04;49.75
71917;BME280;59793;46.506;6.674;2022-08-25T00:06:07;97097.78;;;22.17;49.71
71917;BME280;59793;46.506;6.674;2022-08-25T00:08:33;97091.72;;;22.13;49.61
71917;BME280;59793;46.506;6.674;2022-08-25T00:11:21;97088.72;;;21.91;50.44
71917;BME280;59793;46.506;6.674;2022-08-25T00:13:49;97097.94;;;21.70;50.98
71917;BME280;59793;46.506;6.674;2022-08-25T00:16:18;97093.13;;;21.61;51.30
71917;BME280;59793;46.506;6.674;2022-08-25T00:18:47;97094.63;;;21.62;51.08
71917;BME280;59793;46.506;6.674;2022-08-25T00:21:15;97091.25;;;21.58;51.38
71917;BME280;59793;46.506;6.674;2022-08-25T00:23:41;97098.22;;;21.56;51.30
71917;BME280;59793;46.506;6.674;2022-08-25T00:26:07;97101.22;;;21.58;51.15
71917;BME280;59793;46.506;6.674;2022-08-25T00:28:33;97094.75;;;21.55;51.43
71917;BME280;59793;46.506;6.674;2022-08-25T00:30:59;97093.13;;;21.41;51.88
71917;BME280;59793;46.506;6.674;2022-08-25T00:33:26;97099.09;;;21.49;51.50
71917;BME280;59793;46.506;6.674;2022-08-25T00:35:51;97094.81;;;21.52;51.99
71917;BME280;59793;46.506;6.674;2022-08-25T00:38:18;97098.06;;;21.63;51.41
71917;BME280;59793;46.506;6.674;2022-08-25T00:40:44;97097.94;;;21.70;51.35
71917;BME280;59793;46.506;6.674;2022-08-25T00:43:09;97098.16;;;21.59;52.04
71917;BME280;59793;46.506;6.674;2022-08-25T00:45:35;97103.44;;;21.63;51.79
71917;BME280;59793;46.506;6.674;2022-08-25T00:48:01;97101.09;;;21.65;51.48
71917;BME280;59793;46.506;6.674;2022-08-25T00:50:29;97096.75;;;21.71;51.34
71917;BME280;59793;46.506;6.674;2022-08-25T00:52:59;97108.94;;;21.56;51.37
71917;BME280;59793;46.506;6.674;2022-08-25T00:55:37;97114.31;;;21.56;51.88
71917;BME280;59793;46.506;6.674;2022-08-25T00:58:08;97121.44;;;21.62;51.70
71917;BME280;59793;46.506;6.674;2022-08-25T01:00:42;97126.53;;;21.57;52.49
71917;BME280;59793;46.506;6.674;2022-08-25T01:03:08;97128.84;;;21.55;52.09
71917;BME280;59793;46.506;6.674;2022-08-25T01:05:34;97128.53;;;21.53;52.24
71917;BME280;59793;46.506;6.674;2022-08-25T01:08:00;97138.75;;;21.58;52.22
71917;BME280;59793;46.506;6.674;2022-08-25T01:10:30;97134.34;;;21.47;52.55
71917;BME280;59793;46.506;6.674;2022-08-25T01:13:02;97137.25;;;21.33;53.22
71917;BME280;59793;46.506;6.674;2022-08-25T01:15:30;97148.91;;;21.23;53.89
71917;BME280;59793;46.506;6.674;2022-08-25T01:17:56;97140.97;;;21.16;54.60
71917;BME280;59793;46.506;6.674;2022-08-25T01:20:25;97139.72;;;21.00;54.86
71917;BME280;59793;46.506;6.674;2022-08-25T01:22:52;97141.41;;;21.14;54.72
71917;BME280;59793;46.506;6.674;2022-08-25T01:28:04;97152.34;;;21.23;54.93
71917;BME280;59793;46.506;6.674;2022-08-25T01:30:31;97140.91;;;21.19;55.03
71917;BME280;59793;46.506;6.674;2022-08-25T01:32:56;97132.72;;;21.07;55.82
71917;BME280;59793;46.506;6.674;2022-08-25T01:35:21;97134.81;;;20.95;56.63
71917;BME280;59793;46.506;6.674;2022-08-25T01:37:47;97134.16;;;21.11;56.19
71917;BME280;59793;46.506;6.674;2022-08-25T01:40:13;97125.03;;;21.09;56.41
71917;BME280;59793;46.506;6.674;2022-08-25T01:45:30;97118.97;;;21.05;57.51
71917;BME280;59793;46.506;6.674;2022-08-25T01:47:55;97117.78;;;21.06;57.72
71917;BME280;59793;46.506;6.674;2022-08-25T01:50:21;97116.97;;;21.09;57.61
71917;BME280;59793;46.506;6.674;2022-08-25T01:52:59;97128.81;;;21.11;57.52
71917;BME280;59793;46.506;6.674;2022-08-25T01:55:27;97140.56;;;20.94;57.47
71917;BME280;59793;46.506;6.674;2022-08-25T01:57:52;97142.03;;;20.98;57.36
71917;BME280;59793;46.506;6.674;2022-08-25T02:00:19;97134.56;;;20.86;58.16
71917;BME280;59793;46.506;6.674;2022-08-25T02:02:45;97135.84;;;20.78;58.08
71917;BME280;59793;46.506;6.674;2022-08-25T02:05:13;97131.69;;;20.73;58.02
71917;BME280;59793;46.506;6.674;2022-08-25T02:07:42;97137.00;;;20.77;57.82
71917;BME280;59793;46.506;6.674;2022-08-25T02:10:10;97141.63;;;21.00;57.27
71917;BME280;59793;46.506;6.674;2022-08-25T02:12:36;97138.66;;;20.94;57.46
71917;BME280;59793;46.506;6.674;2022-08-25T02:15:04;97135.78;;;20.82;57.75
71917;BME280;59793;46.506;6.674;2022-08-25T02:17:30;97133.38;;;20.64;57.95
71917;BME280;59793;46.506;6.674;2022-08-25T02:19:56;97126.28;;;20.77;57.90
71917;BME280;59793;46.506;6.674;2022-08-25T02:22:22;97132.56;;;20.67;58.85
71917;BME280;59793;46.506;6.674;2022-08-25T02:24:48;97133.34;;;20.67;58.89
71917;BME280;59793;46.506;6.674;2022-08-25T02:27:13;97127.19;;;20.67;59.24
71917;BME280;59793;46.506;6.674;2022-08-25T02:29:39;97128.63;;;20.75;58.90
71917;BME280;59793;46.506;6.674;2022-08-25T02:32:04;97119.47;;;20.72;58.83
71917;BME280;59793;46.506;6.674;2022-08-25T02:34:30;97115.72;;;20.66;59.05
71917;BME280;59793;46.506;6.674;2022-08-25T02:36:55;97116.19;;;20.61;59.38
71917;BME280;59793;46.506;6.674;2022-08-25T02:39:20;97119.59;;;20.65;59.08
71917;BME280;59793;46.506;6.674;2022-08-25T02:41:46;97119.75;;;20.55;59.58
71917;BME280;59793;46.506;6.674;2022-08-25T02:44:11;97119.97;;;20.37;60.45
71917;BME280;59793;46.506;6.674;2022-08-25T02:46:36;97117.72;;;20.32;60.61
71917;BME280;59793;46.506;6.674;2022-08-25T02:49:03;97125.84;;;20.24;60.54
71917;BME280;59793;46.506;6.674;2022-08-25T02:51:29;97134.28;;;20.23;60.90
71917;BME280;59793;46.506;6.674;2022-08-25T02:53:55;97132.59;;;20.05;61.50
71917;BME280;59793;46.506;6.674;2022-08-25T02:56:22;97134.25;;;19.92;61.78
71917;BME280;59793;46.506;6.674;2022-08-25T02:58:48;97124.31;;;19.93;61.60
71917;BME280;59793;46.506;6.674;2022-08-25T03:01:14;97129.53;;;20.07;61.37
71917;BME280;59793;46.506;6.674;2022-08-25T03:03:40;97110.28;;;20.16;61.67
71917;BME280;59793;46.506;6.674;2022-08-25T03:06:08;97116.34;;;20.20;61.76
71917;BME280;59793;46.506;6.674;2022-08-25T03:08:35;97113.78;;;20.13;62.89
71917;BME280;59793;46.506;6.674;2022-08-25T03:11:00;97120.38;;;20.04;62.77
71917;BME280;59793;46.506;6.674;2022-08-25T03:13:26;97123.84;;;20.01;62.07
71917;BME280;59793;46.506;6.674;2022-08-25T03:15:51;97118.31;;;19.85;62.19
71917;BME280;59793;46.506;6.674;2022-08-25T03:18:16;97115.38;;;19.76;62.69
71917;BME280;59793;46.506;6.674;2022-08-25T03:20:42;97113.31;;;19.87;61.77
71917;BME280;59793;46.506;6.674;2022-08-25T03:23:09;97096.16;;;19.85;61.68
71917;BME280;59793;46.506;6.674;2022-08-25T03:25:34;97088.63;;;19.76;62.27
71917;BME280;59793;46.506;6.674;2022-08-25T03:28:19;97089.38;;;19.76;62.48
71917;BME280;59793;46.506;6.674;2022-08-25T03:30:45;97095.81;;;19.83;62.15
71917;BME280;59793;46.506;6.674;2022-08-25T03:33:10;97096.56;;;19.83;62.22
71917;BME280;59793;46.506;6.674;2022-08-25T03:35:36;97094.69;;;19.80;62.09
71917;BME280;59793;46.506;6.674;2022-08-25T03:38:02;97101.97;;;19.79;62.06
71917;BME280;59793;46.506;6.674;2022-08-25T03:40:28;97100.44;;;19.78;62.34
71917;BME280;59793;46.506;6.674;2022-08-25T03:42:53;97101.50;;;19.85;61.79
71917;BME280;59793;46.506;6.674;2022-08-25T03:45:21;97092.09;;;19.73;61.86
71917;BME280;59793;46.506;6.674;2022-08-25T03:47:48;97099.28;;;19.79;61.32
71917;BME280;59793;46.506;6.674;2022-08-25T03:50:15;97094.03;;;19.72;61.66
71917;BME280;59793;46.506;6.674;2022-08-25T03:52:41;97089.53;;;19.62;62.09
71917;BME280;59793;46.506;6.674;2022-08-25T03:55:08;97087.84;;;19.79;61.58
71917;BME280;59793;46.506;6.674;2022-08-25T03:57:34;97094.78;;;19.73;62.04
71917;BME280;59793;46.506;6.674;2022-08-25T04:00:00;97097.16;;;19.64;62.22
71917;BME280;59793;46.506;6.674;2022-08-25T04:02:26;97103.66;;;19.63;61.96
71917;BME280;59793;46.506;6.674;2022-08-25T04:04:51;97093.91;;;19.45;62.49
71917;BME280;59793;46.506;6.674;2022-08-25T04:07:17;97099.31;;;19.38;62.96
71917;BME280;59793;46.506;6.674;2022-08-25T04:09:42;97099.72;;;19.37;62.93
71917;BME280;59793;46.506;6.674;2022-08-25T04:12:08;97104.22;;;19.43;63.06
71917;BME280;59793;46.506;6.674;2022-08-25T04:14:34;97112.59;;;19.45;63.25
71917;BME280;59793;46.506;6.674;2022-08-25T04:17:00;97111.81;;;19.48;62.82
71917;BME280;59793;46.506;6.674;2022-08-25T04:19:25;97108.81;;;19.43;63.01
71917;BME280;59793;46.506;6.674;2022-08-25T04:21:51;97101.94;;;19.42;63.28
71917;BME280;59793;46.506;6.674;2022-08-25T04:24:18;97100.78;;;19.43;63.36
71917;BME280;59793;46.506;6.674;2022-08-25T04:26:46;97111.44;;;19.46;63.44
71917;BME280;59793;46.506;6.674;2022-08-25T04:29:14;97101.88;;;19.49;63.42
71917;BME280;59793;46.506;6.674;2022-08-25T04:31:42;97101.84;;;19.52;63.57
71917;BME280;59793;46.506;6.674;2022-08-25T04:34:08;97103.34;;;19.53;63.40
71917;BME280;59793;46.506;6.674;2022-08-25T04:36:35;97115.53;;;19.58;63.55
71917;BME280;59793;46.506;6.674;2022-08-25T04:39:00;97110.31;;;19.47;63.27
71917;BME280;59793;46.506;6.674;2022-08-25T04:41:26;97105.88;;;19.30;64.21
71917;BME280;59793;46.506;6.674;2022-08-25T04:43:56;97101.72;;;19.25;64.60
71917;BME280;59793;46.506;6.674;2022-08-25T04:46:27;97105.94;;;19.26;64.45
71917;BME280;59793;46.506;6.674;2022-08-25T04:48:58;97099.91;;;19.19;64.54
71917;BME280;59793;46.506;6.674;2022-08-25T04:51:28;97099.19;;;19.11;64.93
71917;BME280;59793;46.506;6.674;2022-08-25T04:53:54;97099.16;;;19.15;64.98
71917;BME280;59793;46.506;6.674;2022-08-25T04:56:22;97099.91;;;19.19;64.72
71917;BME280;59793;46.506;6.674;2022-08-25T04:58:49;97104.44;;;19.18;64.99
71917;BME280;59793;46.506;6.674;2022-08-25T05:01:17;97109.31;;;19.30;64.71
71917;BME280;59793;46.506;6.674;2022-08-25T05:03:45;97102.81;;;19.31;64.69
71917;BME280;59793;46.506;6.674;2022-08-25T05:06:11;97098.94;;;19.36;65.10
71917;BME280;59793;46.506;6.674;2022-08-25T05:08:36;97096.16;;;19.47;64.44
71917;BME280;59793;46.506;6.674;2022-08-25T05:11:09;97099.53;;;19.54;64.22
71917;BME280;59793;46.506;6.674;2022-08-25T05:13:37;97100.72;;;19.50;64.71
71917;BME280;59793;46.506;6.674;2022-08-25T05:16:03;97101.00;;;19.59;64.20
71917;BME280;59793;46.506;6.674;2022-08-25T05:18:30;97099.84;;;19.60;64.28
71917;BME280;59793;46.506;6.674;2022-08-25T05:21:02;97095.69;;;19.55;64.13
71917;BME280;59793;46.506;6.674;2022-08-25T05:23:27;97112.09;;;19.57;64.18
71917;BME280;59793;46.506;6.674;2022-08-25T05:25:53;97107.91;;;19.56;64.03
71917;BME280;59793;46.506;6.674;2022-08-25T05:28:19;97111.06;;;19.48;64.46
71917;BME280;59793;46.506;6.674;2022-08-25T05:30:46;97105.69;;;19.51;64.48
71917;BME280;59793;46.506;6.674;2022-08-25T05:33:15;97109.91;;;19.49;64.58
71917;BME280;59793;46.506;6.674;2022-08-25T05:35:46;97114.47;;;19.48;64.90
71917;BME280;59793;46.506;6.674;2022-08-25T05:38:11;97119.38;;;19.53;64.81
71917;BME280;59793;46.506;6.674;2022-08-25T05:40:36;97115.13;;;19.59;64.68
71917;BME280;59793;46.506;6.674;2022-08-25T05:43:02;97118.56;;;19.60;64.63
71917;BME280;59793;46.506;6.674;2022-08-25T05:45:27;97122.75;;;19.65;64.36
71917;BME280;59793;46.506;6.674;2022-08-25T05:47:53;97116.16;;;19.73;64.18
71917;BME280;59793;46.506;6.674;2022-08-25T05:50:18;97119.09;;;19.82;63.95
71917;BME280;59793;46.506;6.674;2022-08-25T05:52:44;97124.72;;;19.91;63.94
71917;BME280;59793;46.506;6.674;2022-08-25T05:55:09;97121.88;;;20.05;63.74
71917;BME280;59793;46.506;6.674;2022-08-25T05:57:36;97125.19;;;20.17;63.20
71917;BME280;59793;46.506;6.674;2022-08-25T06:00:03;97118.44;;;20.36;62.91
71917;BME280;59793;46.506;6.674;2022-08-25T06:02:29;97116.38;;;20.50;63.01
71917;BME280;59793;46.506;6.674;2022-08-25T06:05:21;97120.22;;;20.73;62.64
71917;BME280;59793;46.506;6.674;2022-08-25T06:07:50;97110.81;;;20.88;62.55
71917;BME280;59793;46.506;6.674;2022-08-25T06:10:19;97116.72;;;21.03;62.26
71917;BME280;59793;46.506;6.674;2022-08-25T06:12:45;97112.97;;;21.20;62.14
71917;BME280;59793;46.506;6.674;2022-08-25T06:15:13;97118.06;;;21.38;61.80
71917;BME280;59793;46.506;6.674;2022-08-25T06:17:39;97121.75;;;21.44;61.70
71917;BME280;59793;46.506;6.674;2022-08-25T06:20:10;97121.34;;;21.66;61.43
71917;BME280;59793;46.506;6.674;2022-08-25T06:22:37;97122.94;;;21.83;60.72
71917;BME280;59793;46.506;6.674;2022-08-25T06:25:06;97131.91;;;21.96;61.08
71917;BME280;59793;46.506;6.674;2022-08-25T06:27:32;97116.31;;;22.08;60.61
71917;BME280;59793;46.506;6.674;2022-08-25T06:29:59;97125.97;;;22.25;60.05
71917;BME280;59793;46.506;6.674;2022-08-25T06:32:37;97118.28;;;22.43;59.69
71917;BME280;59793;46.506;6.674;2022-08-25T06:35:05;97121.34;;;22.62;59.46
71917;BME280;59793;46.506;6.674;2022-08-25T06:37:32;97111.84;;;22.57;58.43
71917;BME280;59793;46.506;6.674;2022-08-25T06:39:58;97106.13;;;22.39;58.23
71917;BME280;59793;46.506;6.674;2022-08-25T06:42:26;97109.69;;;22.69;57.86
71917;BME280;59793;46.506;6.674;2022-08-25T06:44:52;97108.25;;;22.80;57.16
71917;BME280;59793;46.506;6.674;2022-08-25T06:47:17;97108.53;;;23.02;56.68
71917;BME280;59793;46.506;6.674;2022-08-25T06:49:43;97114.81;;;23.12;56.46
71917;BME280;59793;46.506;6.674;2022-08-25T06:52:09;97115.47;;;22.83;57.01
71917;BME280;59793;46.506;6.674;2022-08-25T06:54:35;97113.63;;;22.97;56.38
71917;BME280;59793;46.506;6.674;2022-08-25T06:57:01;97122.63;;;23.06;56.47
71917;BME280;59793;46.506;6.674;2022-08-25T06:59:27;97117.19;;;23.39;55.57
71917;BME280;59793;46.506;6.674;2022-08-25T07:01:52;97126.81;;;23.24;56.84
71917;BME280;59793;46.506;6.674;2022-08-25T07:04:18;97126.31;;;22.80;58.15
71917;BME280;59793;46.506;6.674;2022-08-25T07:06:44;97125.81;;;22.69;58.74
71917;BME280;59793;46.506;6.674;2022-08-25T07:09:10;97129.09;;;22.93;58.20
71917;BME280;59793;46.506;6.674;2022-08-25T07:11:37;97127.72;;;22.84;57.13
71917;BME280;59793;46.506;6.674;2022-08-25T07:14:05;97125.56;;;22.79;58.42
71917;BME280;59793;46.506;6.674;2022-08-25T07:18:58;97131.88;;;22.36;58.63
71917;BME280;59793;46.506;6.674;2022-08-25T07:21:25;97128.22;;;22.63;57.72
71917;BME280;59793;46.506;6.674;2022-08-25T07:23:52;97122.50;;;22.61;56.88
71917;BME280;59793;46.506;6.674;2022-08-25T07:26:22;97127.47;;;22.62;58.01
71917;BME280;59793;46.506;6.674;2022-08-25T07:28:48;97131.72;;;22.43;58.31
71917;BME280;59793;46.506;6.674;2022-08-25T07:31:13;97127.94;;;22.57;59.02
71917;BME280;59793;46.506;6.674;2022-08-25T07:33:39;97128.53;;;22.49;59.63
71917;BME280;59793;46.506;6.674;2022-08-25T07:36:31;97122.19;;;22.59;59.35
71917;BME280;59793;46.506;6.674;2022-08-25T07:39:00;97125.50;;;22.47;59.30
71917;BME280;59793;46.506;6.674;2022-08-25T07:41:31;97120.72;;;22.54;59.47
71917;BME280;59793;46.506;6.674;2022-08-25T07:44:00;97121.59;;;22.51;59.57
71917;BME280;59793;46.506;6.674;2022-08-25T07:46:26;97126.03;;;22.58;59.28
71917;BME280;59793;46.506;6.674;2022-08-25T07:48:51;97124.19;;;22.71;59.49
71917;BME280;59793;46.506;6.674;2022-08-25T07:51:17;97127.38;;;22.82;59.25
71917;BME280;59793;46.506;6.674;2022-08-25T07:53:42;97133.09;;;22.84;59.43
71917;BME280;59793;46.506;6.674;2022-08-25T07:56:12;97134.28;;;23.00;58.83
71917;BME280;59793;46.506;6.674;2022-08-25T07:58:39;97136.00;;;22.94;59.11
71917;BME280;59793;46.506;6.674;2022-08-25T08:01:06;97140.34;;;23.04;59.36
71917;BME280;59793;46.506;6.674;2022-08-25T08:03:32;97138.66;;;23.10;59.01
71917;BME280;59793;46.506;6.674;2022-08-25T08:06:06;97143.50;;;23.31;58.55
71917;BME280;59793;46.506;6.674;2022-08-25T08:08:31;97140.72;;;23.35;58.30
71917;BME280;59793;46.506;6.674;2022-08-25T08:10:57;97137.59;;;23.53;58.31
71917;BME280;59793;46.506;6.674;2022-08-25T08:13:24;97137.06;;;23.58;57.79
71917;BME280;59793;46.506;6.674;2022-08-25T08:15:51;97142.91;;;23.85;56.21
71917;BME280;59793;46.506;6.674;2022-08-25T08:18:16;97136.28;;;23.74;56.83
71917;BME280;59793;46.506;6.674;2022-08-25T08:20:46;97137.53;;;23.85;56.04
71917;BME280;59793;46.506;6.674;2022-08-25T08:23:12;97142.81;;;23.44;57.50
71917;BME280;59793;46.506;6.674;2022-08-25T08:25:38;97146.19;;;23.77;57.47
71917;BME280;59793;46.506;6.674;2022-08-25T08:28:03;97154.31;;;23.60;57.56
71917;BME280;59793;46.506;6.674;2022-08-25T08:30:29;97144.25;;;23.32;56.49
71917;BME280;59793;46.506;6.674;2022-08-25T08:32:55;97143.28;;;23.71;58.04
71917;BME280;59793;46.506;6.674;2022-08-25T08:35:20;97138.69;;;23.84;56.03
71917;BME280;59793;46.506;6.674;2022-08-25T08:37:46;97142.81;;;24.02;56.36
71917;BME280;59793;46.506;6.674;2022-08-25T08:40:14;97141.25;;;24.17;55.01
71917;BME280;59793;46.506;6.674;2022-08-25T08:43:04;97131.81;;;23.83;56.05
71917;BME280;59793;46.506;6.674;2022-08-25T08:45:50;97122.25;;;23.95;56.24
71917;BME280;59793;46.506;6.674;2022-08-25T08:56:04;97132.97;;;24.37;54.57
71917;BME280;59793;46.506;6.674;2022-08-25T08:58:55;97135.94;;;24.01;55.99
71917;BME280;59793;46.506;6.674;2022-08-25T09:01:34;97130.19;;;24.41;56.43
71917;BME280;59793;46.506;6.674;2022-08-25T09:04:13;97133.06;;;24.33;55.34
71917;BME280;59793;46.506;6.674;2022-08-25T09:06:46;97137.00;;;24.58;54.85
71917;BME280;59793;46.506;6.674;2022-08-25T09:09:25;97127.13;;;24.00;56.36
71917;BME280;59793;46.506;6.674;2022-08-25T09:12:14;97127.59;;;24.88;54.95
71917;BME280;59793;46.506;6.674;2022-08-25T09:17:58;97128.78;;;25.13;52.98
71917;BME280;59793;46.506;6.674;2022-08-25T09:28:49;97122.09;;;25.61;51.63
71917;BME280;59793;46.506;6.674;2022-08-25T09:31:19;97129.06;;;25.84;51.47
71917;BME280;59793;46.506;6.674;2022-08-25T09:33:45;97121.84;;;25.81;51.10
71917;BME280;59793;46.506;6.674;2022-08-25T09:36:11;97129.63;;;26.01;50.21
71917;BME280;59793;46.506;6.674;2022-08-25T09:38:36;97123.75;;;25.59;52.16
71917;BME280;59793;46.506;6.674;2022-08-25T09:41:02;97122.56;;;26.04;51.42
71917;BME280;59793;46.506;6.674;2022-08-25T09:43:34;97121.84;;;25.68;49.82
71917;BME280;59793;46.506;6.674;2022-08-25T09:46:27;97114.53;;;26.13;49.88
71917;BME280;59793;46.506;6.674;2022-08-25T09:48:57;97112.13;;;26.15;50.01
71917;BME280;59793;46.506;6.674;2022-08-25T09:51:36;97113.78;;;26.21;49.97
71917;BME280;59793;46.506;6.674;2022-08-25T09:54:24;97113.78;;;26.12;50.04
71917;BME280;59793;46.506;6.674;2022-08-25T09:56:56;97122.75;;;26.09;50.11
71917;BME280;59793;46.506;6.674;2022-08-25T09:59:34;97122.44;;;25.63;51.03
71917;BME280;59793;46.506;6.674;2022-08-25T10:02:21;97103.56;;;25.85;49.11
71917;BME280;59793;46.506;6.674;2022-08-25T10:04:48;97111.75;;;26.26;48.82
71917;BME280;59793;46.506;6.674;2022-08-25T10:07:27;97110.56;;;26.36;49.87
71917;BME280;59793;46.506;6.674;2022-08-25T10:09:59;97106.81;;;26.64;49.85
71917;BME280;59793;46.506;6.674;2022-08-25T10:12:34;97100.41;;;26.99;48.29
71917;BME280;59793;46.506;6.674;2022-08-25T10:15:22;97094.25;;;26.98;47.08
71917;BME280;59793;46.506;6.674;2022-08-25T10:17:48;97096.78;;;26.43;48.73
71917;BME280;59793;46.506;6.674;2022-08-25T10:20:21;97088.59;;;26.25;48.27
71917;BME280;59793;46.506;6.674;2022-08-25T10:22:48;97078.63;;;26.93;47.03
71917;BME280;59793;46.506;6.674;2022-08-25T10:25:16;97079.22;;;26.97;45.55
71917;BME280;59793;46.506;6.674;2022-08-25T10:33:37;97064.50;;;27.72;45.33
71917;BME280;59793;46.506;6.674;2022-08-25T10:39:21;97062.06;;;27.92;45.34
71917;BME280;59793;46.506;6.674;2022-08-25T10:45:13;97060.44;;;27.76;44.27
71917;BME280;59793;46.506;6.674;2022-08-25T10:51:25;97047.34;;;27.75;44.62
71917;BME280;59793;46.506;6.674;2022-08-25T10:53:57;97044.34;;;27.82;44.58
71917;BME280;59793;46.506;6.674;2022-08-25T10:56:33;97040.44;;;28.16;43.34
71917;BME280;59793;46.506;6.674;2022-08-25T10:59:08;97045.47;;;28.66;41.41
71917;BME280;59793;46.506;6.674;2022-08-25T11:07:47;97032.28;;;28.97;39.62
71917;BME280;59793;46.506;6.674;2022-08-25T11:10:25;97024.59;;;28.81;41.73
71917;BME280;59793;46.506;6.674;2022-08-25T11:12:55;97022.22;;;29.37;39.63
71917;BME280;59793;46.506;6.674;2022-08-25T11:15:32;97024.47;;;29.68;38.23
71917;BME280;59793;46.506;6.674;2022-08-25T11:21:01;97014.06;;;29.51;36.59
71917;BME280;59793;46.506;6.674;2022-08-25T11:23:34;97007.97;;;29.27;37.59
71917;BME280;59793;46.506;6.674;2022-08-25T11:26:07;97009.19;;;29.41;37.65
71917;BME280;59793;46.506;6.674;2022-08-25T11:31:18;97002.72;;;29.09;40.06
71917;BME280;59793;46.506;6.674;2022-08-25T11:33:45;96998.19;;;29.59;37.99
71917;BME280;59793;46.506;6.674;2022-08-25T11:36:23;96987.84;;;29.78;35.71
71917;BME280;59793;46.506;6.674;2022-08-25T11:42:04;96983.94;;;29.79;37.80
71917;BME280;59793;46.506;6.674;2022-08-25T11:50:31;96977.13;;;30.04;34.40
71917;BME280;59793;46.506;6.674;2022-08-25T11:53:18;96992.63;;;29.53;36.14
71917;BME280;59793;46.506;6.674;2022-08-25T11:55:50;96989.91;;;29.53;35.06
71917;BME280;59793;46.506;6.674;2022-08-25T11:58:33;96988.03;;;29.30;35.77
71917;BME280;59793;46.506;6.674;2022-08-25T12:01:03;96981.56;;;29.42;35.39
71917;BME280;59793;46.506;6.674;2022-08-25T12:06:17;96983.34;;;29.45;37.90
71917;BME280;59793;46.506;6.674;2022-08-25T12:19:47;96980.75;;;30.16;38.01
71917;BME280;59793;46.506;6.674;2022-08-25T12:24:53;96981.19;;;30.29;37.62
71917;BME280;59793;46.506;6.674;2022-08-25T12:32:56;96963.28;;;30.78;37.18
71917;BME280;59793;46.506;6.674;2022-08-25T12:38:47;96959.44;;;30.90;36.41
71917;BME280;59793;46.506;6.674;2022-08-25T12:41:14;96952.91;;;31.03;35.73
71917;BME280;59793;46.506;6.674;2022-08-25T12:43:45;96950.03;;;31.38;36.80
71917;BME280;59793;46.506;6.674;2022-08-25T12:51:22;96942.03;;;31.34;36.84
71917;BME280;59793;46.506;6.674;2022-08-25T12:54:35;96936.69;;;31.19;37.26
71917;BME280;59793;46.506;6.674;2022-08-25T12:56:36;96938.63;;;30.67;38.23
71917;BME280;59793;46.506;6.674;2022-08-25T13:07:55;96912.25;;;31.88;36.24
71917;BME280;59793;46.506;6.674;2022-08-25T13:10:35;96915.03;;;32.00;33.31
71917;BME280;59793;46.506;6.674;2022-08-25T13:13:05;96908.09;;;31.99;35.56
71917;BME280;59793;46.506;6.674;2022-08-25T13:15:44;96906.59;;;31.98;34.20
71917;BME280;59793;46.506;6.674;2022-08-25T13:18:25;96904.28;;;31.48;36.63
71917;BME280;59793;46.506;6.674;2022-08-25T13:21:04;96908.03;;;31.24;35.55
71917;BME280;59793;46.506;6.674;2022-08-25T13:23:35;96906.16;;;31.73;34.17
71917;BME280;59793;46.506;6.674;2022-08-25T13:26:02;96901.72;;;31.70;34.84
71917;BME280;59793;46.506;6.674;2022-08-25T13:28:37;96894.66;;;31.52;36.51
71917;BME280;59793;46.506;6.674;2022-08-25T13:31:18;96892.78;;;31.32;35.29
71917;BME280;59793;46.506;6.674;2022-08-25T13:34:15;96892.63;;;31.41;36.58
71917;BME280;59793;46.506;6.674;2022-08-25T13:36:45;96889.09;;;31.35;35.75
71917;BME280;59793;46.506;6.674;2022-08-25T13:39:30;96894.56;;;31.41;36.18
71917;BME280;59793;46.506;6.674;2022-08-25T13:41:58;96883.78;;;31.26;33.78
71917;BME280;59793;46.506;6.674;2022-08-25T13:44:27;96879.13;;;31.01;35.73
71917;BME280;59793;46.506;6.674;2022-08-25T13:47:16;96873.88;;;31.23;35.91
71917;BME280;59793;46.506;6.674;2022-08-25T13:49:45;96873.41;;;31.62;35.35
71917;BME280;59793;46.506;6.674;2022-08-25T13:52:24;96874.03;;;31.83;34.35
71917;BME280;59793;46.506;6.674;2022-08-25T13:54:50;96868.28;;;31.75;33.43
71917;BME280;59793;46.506;6.674;2022-08-25T13:57:40;96863.31;;;31.68;31.25
71917;BME280;59793;46.506;6.674;2022-08-25T14:00:09;96868.09;;;31.41;35.61
71917;BME280;59793;46.506;6.674;2022-08-25T14:05:04;96872.66;;;30.92;35.28
71917;BME280;59793;46.506;6.674;2022-08-25T14:07:30;96866.94;;;30.90;34.65
71917;BME280;59793;46.506;6.674;2022-08-25T14:10:29;96865.97;;;31.25;36.35
71917;BME280;59793;46.506;6.674;2022-08-25T14:13:36;96869.53;;;31.05;36.53
71917;BME280;59793;46.506;6.674;2022-08-25T14:18:37;96855.41;;;31.70;34.81
71917;BME280;59793;46.506;6.674;2022-08-25T14:21:09;96854.13;;;31.65;33.60
71917;BME280;59793;46.506;6.674;2022-08-25T14:23:36;96856.38;;;32.21;34.07
71917;BME280;59793;46.506;6.674;2022-08-25T14:26:02;96850.47;;;31.74;35.45
71917;BME280;59793;46.506;6.674;2022-08-25T14:28:28;96846.84;;;31.88;33.51
71917;BME280;59793;46.506;6.674;2022-08-25T14:31:05;96849.66;;;32.05;35.50
71917;BME280;59793;46.506;6.674;2022-08-25T14:33:51;96846.22;;;31.67;34.69
71917;BME280;59793;46.506;6.674;2022-08-25T14:36:28;96838.22;;;31.53;36.36
71917;BME280;59793;46.506;6.674;2022-08-25T14:38:53;96827.50;;;31.43;36.41
71917;BME280;59793;46.506;6.674;2022-08-25T14:41:19;96832.50;;;31.13;39.33
71917;BME280;59793;46.506;6.674;2022-08-25T14:43:45;96830.09;;;30.69;41.60
71917;BME280;59793;46.506;6.674;2022-08-25T14:46:33;96828.25;;;30.29;41.30
71917;BME280;59793;46.506;6.674;2022-08-25T14:49:03;96832.22;;;30.13;41.49
71917;BME280;59793;46.506;6.674;2022-08-25T14:51:31;96824.25;;;30.76;40.19
71917;BME280;59793;46.506;6.674;2022-08-25T14:54:04;96825.81;;;30.83;39.22
71917;BME280;59793;46.506;6.674;2022-08-25T14:56:32;96824.06;;;30.59;39.50
71917;BME280;59793;46.506;6.674;2022-08-25T14:59:00;96826.63;;;30.94;40.59
71917;BME280;59793;46.506;6.674;2022-08-25T15:01:27;96823.47;;;31.33;36.32